sensor_id;sensor_type;location;lat;lon;timestamp;P1;durP1;ratioP1;P2;durP2;ratioP2
71042;SDS011;58696;52.134;5.500;2023-04-01T00:00:26;6.47;;;4.07;;
71042;SDS011;58696;52.134;5.500;2023-04-01T00:02:53;7.15;;;4.40;;
71042;SDS011;58696;52.134;5.500;2023-04-01T00:05:20;7.00;;;4.63;;
71042;SDS011;58696;52.134;5.500;2023-04-01T00:07:49;8.23;;;4.55;;
71042;SDS011;58696;52.134;5.500;2023-04-01T00:10:21;9.02;;;5.25;;
71042;SDS011;58696;52.134;5.500;2023-04-01T00:12:47;7.32;;;5.03;;
71042;SDS011;58696;52.134;5.500;2023-04-01T00:15:19;10.20;;;5.43;;
71042;SDS011;58696;52.134;5.500;2023-04-01T00:17:50;11.57;;;5.88;;
71042;SDS011;58696;52.134;5.500;2023-04-01T00:20:17;10.80;;;5.68;;
71042;SDS011;58696;52.134;5.500;2023-04-01T00:22:43;17.17;;;6.20;;
71042;SDS011;58696;52.134;5.500;2023-04-01T00:25:12;15.32;;;6.25;;
71042;SDS011;58696;52.134;5.500;2023-04-01T00:27:39;16.73;;;7.25;;
71042;SDS011;58696;52.134;5.500;2023-04-01T00:30:06;12.13;;;6.10;;
71042;SDS011;58696;52.134;5.500;2023-04-01T00:32:36;18.25;;;6.30;;
71042;SDS011;58696;52.134;5.500;2023-04-01T00:35:03;10.30;;;5.38;;
71042;SDS011;58696;52.134;5.500;2023-04-01T00:37:35;16.95;;;5.85;;
71042;SDS011;58696;52.134;5.500;2023-04-01T00:40:04;10.57;;;6.40;;
71042;SDS011;58696;52.134;5.500;2023-04-01T00:42:34;11.82;;;5.63;;
71042;SDS011;58696;52.134;5.500;2023-04-01T00:45:21;13.52;;;6.35;;
71042;SDS011;58696;52.134;5.500;2023-04-01T00:47:53;14.13;;;6.20;;
71042;SDS011;58696;52.134;5.500;2023-04-01T00:50:21;13.50;;;5.90;;
71042;SDS011;58696;52.134;5.500;2023-04-01T00:52:53;18.50;;;7.10;;
71042;SDS011;58696;52.134;5.500;2023-04-01T00:55:21;17.15;;;6.72;;
71042;SDS011;58696;52.134;5.500;2023-04-01T00:57:49;15.75;;;6.65;;
71042;SDS011;58696;52.134;5.500;2023-04-01T01:00:19;15.65;;;6.85;;
71042;SDS011;58696;52.134;5.500;2023-04-01T01:02:47;24.30;;;7.18;;
71042;SDS011;58696;52.134;5.500;2023-04-01T01:05:18;17.77;;;7.45;;
71042;SDS011;58696;52.134;5.500;2023-04-01T01:08:01;12.45;;;6.70;;
71042;SDS011;58696;52.134;5.500;2023-04-01T01:10:49;16.65;;;6.40;;
71042;SDS011;58696;52.134;5.500;2023-04-01T01:13:30;21.58;;;6.88;;
71042;SDS011;58696;52.134;5.500;2023-04-01T01:16:17;17.42;;;6.55;;
71042;SDS011;58696;52.134;5.500;2023-04-01T01:27:14;12.68;;;7.38;;
71042;SDS011;58696;52.134;5.500;2023-04-01T01:29:54;20.60;;;7.72;;
71042;SDS011;58696;52.134;5.500;2023-04-01T01:35:37;13.80;;;6.78;;
71042;SDS011;58696;52.134;5.500;2023-04-01T01:38:09;17.35;;;8.55;;
71042;SDS011;58696;52.134;5.500;2023-04-01T01:40:41;16.83;;;7.78;;
71042;SDS011;58696;52.134;5.500;2023-04-01T01:43:12;15.73;;;8.20;;
71042;SDS011;58696;52.134;5.500;2023-04-01T01:45:46;15.95;;;7.60;;
71042;SDS011;58696;52.134;5.500;2023-04-01T01:48:17;13.73;;;6.43;;
71042;SDS011;58696;52.134;5.500;2023-04-01T01:53:13;12.57;;;6.03;;
71042;SDS011;58696;52.134;5.500;2023-04-01T01:55:44;11.68;;;5.53;;
71042;SDS011;58696;52.134;5.500;2023-04-01T01:58:30;7.07;;;4.70;;
71042;SDS011;58696;52.134;5.500;2023-04-01T02:01:02;10.73;;;5.23;;
71042;SDS011;58696;52.134;5.500;2023-04-01T02:03:37;9.90;;;5.03;;
71042;SDS011;58696;52.134;5.500;2023-04-01T02:06:10;10.30;;;5.03;;
71042;SDS011;58696;52.134;5.500;2023-04-01T02:08:44;11.07;;;4.85;;
71042;SDS011;58696;52.134;5.500;2023-04-01T02:11:14;6.22;;;4.05;;
71042;SDS011;58696;52.134;5.500;2023-04-01T02:16:27;3.28;;;2.20;;
71042;SDS011;58696;52.134;5.500;2023-04-01T02:19:03;5.05;;;2.28;;
71042;SDS011;58696;52.134;5.500;2023-04-01T02:21:35;5.18;;;2.58;;
71042;SDS011;58696;52.134;5.500;2023-04-01T02:24:04;4.43;;;2.58;;
71042;SDS011;58696;52.134;5.500;2023-04-01T02:26:36;4.07;;;2.13;;
71042;SDS011;58696;52.134;5.500;2023-04-01T02:29:02;4.18;;;2.63;;
71042;SDS011;58696;52.134;5.500;2023-04-01T02:31:32;3.45;;;2.40;;
71042;SDS011;58696;52.134;5.500;2023-04-01T02:34:00;4.25;;;2.50;;
71042;SDS011;58696;52.134;5.500;2023-04-01T02:36:30;3.00;;;2.40;;
71042;SDS011;58696;52.134;5.500;2023-04-01T02:39:03;4.60;;;2.50;;
71042;SDS011;58696;52.134;5.500;2023-04-01T02:41:31;4.03;;;2.58;;
71042;SDS011;58696;52.134;5.500;2023-04-01T02:44:00;4.68;;;2.92;;
71042;SDS011;58696;52.134;5.500;2023-04-01T02:46:34;4.15;;;2.63;;
71042;SDS011;58696;52.134;5.500;2023-04-01T02:49:04;6.60;;;2.95;;
71042;SDS011;58696;52.134;5.500;2023-04-01T02:51:33;3.75;;;2.65;;
71042;SDS011;58696;52.134;5.500;2023-04-01T02:54:02;4.38;;;2.67;;
71042;SDS011;58696;52.134;5.500;2023-04-01T02:56:29;3.83;;;2.42;;
71042;SDS011;58696;52.134;5.500;2023-04-01T02:59:01;5.63;;;2.85;;
71042;SDS011;58696;52.134;5.500;2023-04-01T03:01:27;3.50;;;2.72;;
71042;SDS011;58696;52.134;5.500;2023-04-01T03:03:56;5.20;;;2.45;;
71042;SDS011;58696;52.134;5.500;2023-04-01T03:06:23;7.07;;;3.67;;
71042;SDS011;58696;52.134;5.500;2023-04-01T03:08:55;8.38;;;2.90;;
71042;SDS011;58696;52.134;5.500;2023-04-01T03:11:21;4.20;;;3.00;;
71042;SDS011;58696;52.134;5.500;2023-04-01T03:13:48;5.00;;;2.80;;
71042;SDS011;58696;52.134;5.500;2023-04-01T03:16:17;4.13;;;2.83;;
71042;SDS011;58696;52.134;5.500;2023-04-01T03:18:46;5.57;;;2.60;;
71042;SDS011;58696;52.134;5.500;2023-04-01T03:21:16;3.67;;;2.47;;
71042;SDS011;58696;52.134;5.500;2023-04-01T03:23:46;3.20;;;2.30;;
71042;SDS011;58696;52.134;5.500;2023-04-01T03:26:13;3.08;;;2.40;;
71042;SDS011;58696;52.134;5.500;2023-04-01T03:28:40;3.70;;;2.40;;
71042;SDS011;58696;52.134;5.500;2023-04-01T03:31:06;2.78;;;2.17;;
71042;SDS011;58696;52.134;5.500;2023-04-01T03:33:33;3.70;;;2.50;;
71042;SDS011;58696;52.134;5.500;2023-04-01T03:36:00;3.13;;;2.40;;
71042;SDS011;58696;52.134;5.500;2023-04-01T03:38:35;5.22;;;2.33;;
71042;SDS011;58696;52.134;5.500;2023-04-01T03:41:02;4.28;;;2.17;;
71042;SDS011;58696;52.134;5.500;2023-04-01T03:43:29;4.40;;;2.63;;
71042;SDS011;58696;52.134;5.500;2023-04-01T03:45:56;2.53;;;2.22;;
71042;SDS011;58696;52.134;5.500;2023-04-01T03:50:52;3.05;;;2.25;;
71042;SDS011;58696;52.134;5.500;2023-04-01T03:53:20;3.33;;;2.40;;
71042;SDS011;58696;52.134;5.500;2023-04-01T03:55:47;3.95;;;2.80;;
71042;SDS011;58696;52.134;5.500;2023-04-01T03:58:17;4.03;;;2.58;;
71042;SDS011;58696;52.134;5.500;2023-04-01T04:00:43;7.18;;;2.53;;
71042;SDS011;58696;52.134;5.500;2023-04-01T04:03:10;5.57;;;3.28;;
71042;SDS011;58696;52.134;5.500;2023-04-01T04:05:46;3.65;;;3.35;;
71042;SDS011;58696;52.134;5.500;2023-04-01T04:08:13;6.40;;;4.05;;
71042;SDS011;58696;52.134;5.500;2023-04-01T04:10:44;8.27;;;4.22;;
71042;SDS011;58696;52.134;5.500;2023-04-01T04:13:14;6.93;;;5.03;;
71042;SDS011;58696;52.134;5.500;2023-04-01T04:15:43;10.38;;;6.10;;
71042;SDS011;58696;52.134;5.500;2023-04-01T04:18:12;11.10;;;6.05;;
71042;SDS011;58696;52.134;5.500;2023-04-01T04:20:44;8.65;;;6.40;;
71042;SDS011;58696;52.134;5.500;2023-04-01T04:23:14;10.57;;;6.68;;
71042;SDS011;58696;52.134;5.500;2023-04-01T04:25:41;8.32;;;6.43;;
71042;SDS011;58696;52.134;5.500;2023-04-01T04:28:07;8.32;;;6.45;;
71042;SDS011;58696;52.134;5.500;2023-04-01T04:30:34;12.07;;;6.57;;
71042;SDS011;58696;52.134;5.500;2023-04-01T04:33:00;8.25;;;6.38;;
71042;SDS011;58696;52.134;5.500;2023-04-01T04:35:27;8.90;;;6.15;;
71042;SDS011;58696;52.134;5.500;2023-04-01T04:37:54;12.13;;;7.03;;
71042;SDS011;58696;52.134;5.500;2023-04-01T04:40:21;9.73;;;6.35;;
71042;SDS011;58696;52.134;5.500;2023-04-01T04:42:49;12.85;;;6.10;;
71042;SDS011;58696;52.134;5.500;2023-04-01T04:45:16;10.48;;;5.53;;
71042;SDS011;58696;52.134;5.500;2023-04-01T04:47:44;10.02;;;6.15;;
71042;SDS011;58696;52.134;5.500;2023-04-01T04:50:11;7.97;;;5.78;;
71042;SDS011;58696;52.134;5.500;2023-04-01T04:52:40;8.77;;;5.78;;
71042;SDS011;58696;52.134;5.500;2023-04-01T04:55:09;8.60;;;6.18;;
71042;SDS011;58696;52.134;5.500;2023-04-01T04:57:38;9.50;;;6.07;;
71042;SDS011;58696;52.134;5.500;2023-04-01T05:00:07;10.70;;;6.55;;
71042;SDS011;58696;52.134;5.500;2023-04-01T05:02:37;11.55;;;6.18;;
71042;SDS011;58696;52.134;5.500;2023-04-01T05:05:07;8.30;;;6.15;;
71042;SDS011;58696;52.134;5.500;2023-04-01T05:07:34;7.00;;;5.75;;
71042;SDS011;58696;52.134;5.500;2023-04-01T05:10:01;7.65;;;5.70;;
71042;SDS011;58696;52.134;5.500;2023-04-01T05:12:27;6.85;;;5.70;;
71042;SDS011;58696;52.134;5.500;2023-04-01T05:14:54;8.95;;;5.63;;
71042;SDS011;58696;52.134;5.500;2023-04-01T05:17:23;9.07;;;5.80;;
71042;SDS011;58696;52.134;5.500;2023-04-01T05:19:49;6.43;;;5.25;;
71042;SDS011;58696;52.134;5.500;2023-04-01T05:22:16;8.65;;;4.78;;
71042;SDS011;58696;52.134;5.500;2023-04-01T05:24:43;6.30;;;4.88;;
71042;SDS011;58696;52.134;5.500;2023-04-01T05:27:09;7.88;;;5.05;;
71042;SDS011;58696;52.134;5.500;2023-04-01T05:29:36;5.25;;;4.45;;
71042;SDS011;58696;52.134;5.500;2023-04-01T05:32:02;7.00;;;4.65;;
71042;SDS011;58696;52.134;5.500;2023-04-01T05:34:28;5.50;;;4.57;;
71042;SDS011;58696;52.134;5.500;2023-04-01T05:36:57;5.00;;;4.00;;
71042;SDS011;58696;52.134;5.500;2023-04-01T05:39:24;4.15;;;3.30;;
71042;SDS011;58696;52.134;5.500;2023-04-01T05:41:50;4.78;;;3.55;;
71042;SDS011;58696;52.134;5.500;2023-04-01T05:44:17;4.05;;;3.70;;
71042;SDS011;58696;52.134;5.500;2023-04-01T05:46:43;5.15;;;3.78;;
71042;SDS011;58696;52.134;5.500;2023-04-01T05:49:10;4.25;;;3.67;;
71042;SDS011;58696;52.134;5.500;2023-04-01T05:51:37;4.00;;;3.47;;
71042;SDS011;58696;52.134;5.500;2023-04-01T05:54:04;5.28;;;3.67;;
71042;SDS011;58696;52.134;5.500;2023-04-01T05:56:31;3.92;;;3.33;;
71042;SDS011;58696;52.134;5.500;2023-04-01T05:58:57;3.15;;;2.85;;
71042;SDS011;58696;52.134;5.500;2023-04-01T06:01:24;3.90;;;2.60;;
71042;SDS011;58696;52.134;5.500;2023-04-01T06:03:50;2.97;;;2.78;;
71042;SDS011;58696;52.134;5.500;2023-04-01T06:06:24;2.47;;;2.28;;
71042;SDS011;58696;52.134;5.500;2023-04-01T06:08:53;3.13;;;2.83;;
71042;SDS011;58696;52.134;5.500;2023-04-01T06:22:29;2.88;;;2.58;;
71042;SDS011;58696;52.134;5.500;2023-04-01T06:25:22;2.70;;;2.50;;
71042;SDS011;58696;52.134;5.500;2023-04-01T06:30:44;3.47;;;3.05;;
71042;SDS011;58696;52.134;5.500;2023-04-01T06:36:34;3.97;;;3.65;;
71042;SDS011;58696;52.134;5.500;2023-04-01T06:39:26;4.22;;;3.22;;
71042;SDS011;58696;52.134;5.500;2023-04-01T06:50:28;4.35;;;2.95;;
71042;SDS011;58696;52.134;5.500;2023-04-01T06:56:16;5.90;;;2.90;;
71042;SDS011;58696;52.134;5.500;2023-04-01T06:58:43;2.57;;;2.30;;
71042;SDS011;58696;52.134;5.500;2023-04-01T07:01:24;2.20;;;2.00;;
71042;SDS011;58696;52.134;5.500;2023-04-01T07:03:57;1.88;;;1.60;;
71042;SDS011;58696;52.134;5.500;2023-04-01T07:06:31;1.50;;;1.40;;
71042;SDS011;58696;52.134;5.500;2023-04-01T07:09:05;1.25;;;1.15;;
71042;SDS011;58696;52.134;5.500;2023-04-01T07:11:37;1.17;;;0.95;;
71042;SDS011;58696;52.134;5.500;2023-04-01T07:14:08;2.50;;;1.05;;
71042;SDS011;58696;52.134;5.500;2023-04-01T07:16:46;1.15;;;1.08;;
71042;SDS011;58696;52.134;5.500;2023-04-01T07:19:31;13.52;;;10.93;;
71042;SDS011;58696;52.134;5.500;2023-04-01T07:22:10;1.75;;;1.45;;
71042;SDS011;58696;52.134;5.500;2023-04-01T07:24:47;1.40;;;1.30;;
71042;SDS011;58696;52.134;5.500;2023-04-01T07:27:20;2.17;;;1.70;;
71042;SDS011;58696;52.134;5.500;2023-04-01T07:29:49;1.63;;;1.52;;
71042;SDS011;58696;52.134;5.500;2023-04-01T07:32:26;1.73;;;1.63;;
71042;SDS011;58696;52.134;5.500;2023-04-01T07:35:04;3.05;;;2.33;;
71042;SDS011;58696;52.134;5.500;2023-04-01T07:46:33;2.45;;;1.95;;
71042;SDS011;58696;52.134;5.500;2023-04-01T07:49:17;3.42;;;2.25;;
71042;SDS011;58696;52.134;5.500;2023-04-01T07:55:06;2.85;;;2.45;;
71042;SDS011;58696;52.134;5.500;2023-04-01T07:57:47;7.28;;;2.53;;
71042;SDS011;58696;52.134;5.500;2023-04-01T08:00:30;2.67;;;2.47;;
71042;SDS011;58696;52.134;5.500;2023-04-01T17:16:00;5.10;;;4.00;;
71042;SDS011;58696;52.134;5.500;2023-04-01T17:32:47;5.03;;;2.90;;
71042;SDS011;58696;52.134;5.500;2023-04-01T17:43:33;3.03;;;2.40;;
71042;SDS011;58696;52.134;5.500;2023-04-01T18:00:21;3.70;;;3.40;;
71042;SDS011;58696;52.134;5.500;2023-04-01T18:22:48;2.45;;;2.25;;
71042;SDS011;58696;52.134;5.500;2023-04-01T18:25:37;3.15;;;2.85;;
71042;SDS011;58696;52.134;5.500;2023-04-01T18:38:48;2.75;;;2.55;;
71042;SDS011;58696;52.134;5.500;2023-04-01T18:41:29;2.72;;;2.53;;
71042;SDS011;58696;52.134;5.500;2023-04-01T18:44:15;3.75;;;2.80;;
71042;SDS011;58696;52.134;5.500;2023-04-01T18:47:26;4.78;;;4.38;;
71042;SDS011;58696;52.134;5.500;2023-04-01T18:55:46;3.42;;;3.13;;
71042;SDS011;58696;52.134;5.500;2023-04-01T18:58:21;3.08;;;2.88;;
71042;SDS011;58696;52.134;5.500;2023-04-01T19:09:18;3.38;;;3.08;;
71042;SDS011;58696;52.134;5.500;2023-04-01T19:17:16;2.90;;;2.55;;
71042;SDS011;58696;52.134;5.500;2023-04-01T19:20:12;3.28;;;2.60;;
71042;SDS011;58696;52.134;5.500;2023-04-01T19:22:47;2.58;;;2.38;;
71042;SDS011;58696;52.134;5.500;2023-04-01T19:25:26;3.88;;;3.40;;
71042;SDS011;58696;52.134;5.500;2023-04-01T19:45:29;2.95;;;2.75;;
71042;SDS011;58696;52.134;5.500;2023-04-01T19:53:52;3.03;;;2.83;;
71042;SDS011;58696;52.134;5.500;2023-04-01T19:59:51;3.13;;;2.42;;
71042;SDS011;58696;52.134;5.500;2023-04-01T20:04:50;2.83;;;2.63;;
71042;SDS011;58696;52.134;5.500;2023-04-01T20:10:17;3.08;;;2.78;;
71042;SDS011;58696;52.134;5.500;2023-04-01T20:15:36;3.95;;;3.38;;
71042;SDS011;58696;52.134;5.500;2023-04-01T20:27:03;5.35;;;4.85;;
71042;SDS011;58696;52.134;5.500;2023-04-01T20:36:05;4.72;;;4.32;;
71042;SDS011;58696;52.134;5.500;2023-04-01T20:44:15;5.35;;;4.85;;
71042;SDS011;58696;52.134;5.500;2023-04-01T20:52:35;4.57;;;4.18;;
71042;SDS011;58696;52.134;5.500;2023-04-01T20:55:17;4.88;;;4.43;;
71042;SDS011;58696;52.134;5.500;2023-04-01T20:58:09;4.60;;;4.20;;
71042;SDS011;58696;52.134;5.500;2023-04-01T21:01:07;7.55;;;4.25;;
71042;SDS011;58696;52.134;5.500;2023-04-01T21:03:44;5.07;;;4.68;;
71042;SDS011;58696;52.134;5.500;2023-04-01T21:17:22;4.45;;;4.05;;
71042;SDS011;58696;52.134;5.500;2023-04-01T21:22:53;5.65;;;5.15;;
71042;SDS011;58696;52.134;5.500;2023-04-01T21:28:50;6.03;;;5.43;;
71042;SDS011;58696;52.134;5.500;2023-04-01T21:31:38;3.80;;;3.50;;
71042;SDS011;58696;52.134;5.500;2023-04-01T21:39:49;3.90;;;3.35;;
71042;SDS011;58696;52.134;5.500;2023-04-01T22:08:20;4.50;;;3.50;;
71042;SDS011;58696;52.134;5.500;2023-04-01T22:13:30;5.75;;;4.75;;
71042;SDS011;58696;52.134;5.500;2023-04-01T22:19:04;4.40;;;4.00;;
71042;SDS011;58696;52.134;5.500;2023-04-01T22:30:17;4.60;;;4.20;;
71042;SDS011;58696;52.134;5.500;2023-04-01T22:32:46;4.60;;;4.20;;
71042;SDS011;58696;52.134;5.500;2023-04-01T22:35:28;5.85;;;4.43;;
71042;SDS011;58696;52.134;5.500;2023-04-01T22:40:32;6.45;;;4.53;;
71042;SDS011;58696;52.134;5.500;2023-04-01T22:43:16;5.43;;;4.40;;
71042;SDS011;58696;52.134;5.500;2023-04-01T22:54:13;4.85;;;4.40;;
71042;SDS011;58696;52.134;5.500;2023-04-01T22:59:35;6.03;;;4.53;;
71042;SDS011;58696;52.134;5.500;2023-04-01T23:02:13;5.40;;;4.43;;
71042;SDS011;58696;52.134;5.500;2023-04-01T23:04:51;5.53;;;4.40;;
71042;SDS011;58696;52.134;5.500;2023-04-01T23:10:19;5.57;;;4.85;;
71042;SDS011;58696;52.134;5.500;2023-04-01T23:12:54;5.97;;;4.55;;
71042;SDS011;58696;52.134;5.500;2023-04-01T23:15:27;5.47;;;4.55;;
71042;SDS011;58696;52.134;5.500;2023-04-01T23:28:42;5.78;;;5.15;;
71042;SDS011;58696;52.134;5.500;2023-04-01T23:33:57;6.43;;;5.32;;
71042;SDS011;58696;52.134;5.500;2023-04-01T23:36:26;6.10;;;4.78;;
71042;SDS011;58696;52.134;5.500;2023-04-01T23:38:56;8.20;;;4.78;;
71042;SDS011;58696;52.134;5.500;2023-04-01T23:41:31;5.78;;;4.95;;
71042;SDS011;58696;52.134;5.500;2023-04-01T23:44:03;7.05;;;5.88;;
71042;SDS011;58696;52.134;5.500;2023-04-01T23:46:33;6.40;;;5.32;;
71042;SDS011;58696;52.134;5.500;2023-04-01T23:49:05;4.93;;;4.47;;
71042;SDS011;58696;52.134;5.500;2023-04-01T23:51:39;8.50;;;5.88;;
71042;SDS011;58696;52.134;5.500;2023-04-01T23:54:19;6.88;;;5.13;;
71042;SDS011;58696;52.134;5.500;2023-04-01T23:56:54;8.18;;;5.50;;
71042;SDS011;58696;52.134;5.500;2023-04-01T23:59:23;7.35;;;5.57;;
